Logrono, Spain
Current Conditions -  °F | °C
As of 7:00 AM on Saturday 20 Dec 2014 (Local Time) from LELO Reporting Station
Broken Clouds Broken Clouds  
Wind Chill:   Ceiling: 4000
Heat Index:   Visibility: 6mi
Dew Point:   Wind: 14mph
Humidity: 87%   Direction: 260°W
Pressure: 30.5"   Gusts: NA
Location:  42.47°N, 2.45°W
Report Text: LELO 200600Z 26012KT 9999 SCT025 BKN040 07/05 Q1033
Loading
Personal Weather Stations






























Interactive Weather Map New forecast layout! Learn more

10-Day Weather Forecast

Advertisements
Track Severe Weather on mobile